sensor_id;sensor_type;location;lat;lon;timestamp;pressure;altitude;pressure_sealevel;temperature;humidity
73633;BME280;61927;50.080;14.418;2023-11-21T00:00:49;98794.09;;;9.54;76.16
73633;BME280;61927;50.080;14.418;2023-11-21T00:03:34;98788.59;;;9.57;76.23
73633;BME280;61927;50.080;14.418;2023-11-21T00:06:00;98789.66;;;9.55;76.29
73633;BME280;61927;50.080;14.418;2023-11-21T00:08:26;98789.97;;;9.50;76.40
73633;BME280;61927;50.080;14.418;2023-11-21T00:10:52;98785.09;;;9.44;76.81
73633;BME280;61927;50.080;14.418;2023-11-21T00:13:18;98789.31;;;9.47;76.41
73633;BME280;61927;50.080;14.418;2023-11-21T00:15:44;98786.25;;;9.40;76.80
73633;BME280;61927;50.080;14.418;2023-11-21T00:18:09;98779.78;;;9.44;76.71
73633;BME280;61927;50.080;14.418;2023-11-21T00:20:35;98778.84;;;9.45;76.86
73633;BME280;61927;50.080;14.418;2023-11-21T00:23:01;98778.84;;;9.45;76.99
73633;BME280;61927;50.080;14.418;2023-11-21T00:25:27;98780.84;;;9.42;76.99
73633;BME280;61927;50.080;14.418;2023-11-21T00:27:53;98784.66;;;9.37;76.94
73633;BME280;61927;50.080;14.418;2023-11-21T00:30:19;98786.03;;;9.43;77.01
73633;BME280;61927;50.080;14.418;2023-11-21T00:32:46;98789.75;;;9.41;77.20
73633;BME280;61927;50.080;14.418;2023-11-21T00:35:12;98783.78;;;9.24;77.43
73633;BME280;61927;50.080;14.418;2023-11-21T00:37:37;98788.03;;;9.27;78.23
73633;BME280;61927;50.080;14.418;2023-11-21T00:40:05;98795.00;;;9.28;78.48
73633;BME280;61927;50.080;14.418;2023-11-21T00:42:31;98796.94;;;9.38;77.91
73633;BME280;61927;50.080;14.418;2023-11-21T00:44:59;98798.09;;;9.34;78.12
73633;BME280;61927;50.080;14.418;2023-11-21T00:47:25;98796.63;;;9.43;77.69
73633;BME280;61927;50.080;14.418;2023-11-21T00:49:50;98797.28;;;9.47;77.46
73633;BME280;61927;50.080;14.418;2023-11-21T00:52:16;98789.44;;;9.45;77.25
73633;BME280;61927;50.080;14.418;2023-11-21T00:54:42;98788.78;;;9.42;78.35
73633;BME280;61927;50.080;14.418;2023-11-21T00:57:07;98786.88;;;9.31;78.13
73633;BME280;61927;50.080;14.418;2023-11-21T00:59:34;98790.47;;;9.30;77.89
73633;BME280;61927;50.080;14.418;2023-11-21T01:02:00;98786.53;;;9.23;78.20
73633;BME280;61927;50.080;14.418;2023-11-21T01:04:27;98790.16;;;9.34;77.87
73633;BME280;61927;50.080;14.418;2023-11-21T01:06:53;98789.50;;;9.31;78.22
73633;BME280;61927;50.080;14.418;2023-11-21T01:09:18;98797.78;;;9.39;77.81
73633;BME280;61927;50.080;14.418;2023-11-21T01:11:44;98801.06;;;9.43;77.77
73633;BME280;61927;50.080;14.418;2023-11-21T01:14:10;98799.59;;;9.38;77.63
73633;BME280;61927;50.080;14.418;2023-11-21T01:16:36;98802.97;;;9.41;77.13
73633;BME280;61927;50.080;14.418;2023-11-21T01:19:01;98801.28;;;9.39;77.17
73633;BME280;61927;50.080;14.418;2023-11-21T01:21:27;98800.31;;;9.41;77.71
73633;BME280;61927;50.080;14.418;2023-11-21T01:23:53;98798.53;;;9.41;77.55
73633;BME280;61927;50.080;14.418;2023-11-21T01:26:20;98794.94;;;9.42;77.12
73633;BME280;61927;50.080;14.418;2023-11-21T01:28:46;98795.25;;;9.37;77.19
73633;BME280;61927;50.080;14.418;2023-11-21T01:31:17;98799.78;;;9.35;77.30
73633;BME280;61927;50.080;14.418;2023-11-21T01:33:43;98793.53;;;9.36;77.54
73633;BME280;61927;50.080;14.418;2023-11-21T01:36:09;98798.72;;;9.25;77.43
73633;BME280;61927;50.080;14.418;2023-11-21T01:38:35;98797.44;;;9.31;77.67
73633;BME280;61927;50.080;14.418;2023-11-21T01:41:00;98803.09;;;9.39;76.92
73633;BME280;61927;50.080;14.418;2023-11-21T01:43:27;98808.16;;;9.42;76.99
73633;BME280;61927;50.080;14.418;2023-11-21T01:45:55;98799.47;;;9.40;76.97
73633;BME280;61927;50.080;14.418;2023-11-21T01:48:24;98801.19;;;9.41;77.00
73633;BME280;61927;50.080;14.418;2023-11-21T01:50:50;98806.47;;;9.41;76.65
73633;BME280;61927;50.080;14.418;2023-11-21T01:53:16;98814.22;;;9.44;76.50
73633;BME280;61927;50.080;14.418;2023-11-21T01:55:42;98814.00;;;9.47;76.47
73633;BME280;61927;50.080;14.418;2023-11-21T01:58:10;98814.81;;;9.35;77.00
73633;BME280;61927;50.080;14.418;2023-11-21T02:00:37;98810.47;;;9.34;77.46
73633;BME280;61927;50.080;14.418;2023-11-21T02:03:04;98808.78;;;9.33;77.91
73633;BME280;61927;50.080;14.418;2023-11-21T02:05:29;98804.53;;;9.30;78.03
73633;BME280;61927;50.080;14.418;2023-11-21T02:07:55;98808.97;;;9.17;79.60
73633;BME280;61927;50.080;14.418;2023-11-21T02:10:21;98821.69;;;9.25;79.31
73633;BME280;61927;50.080;14.418;2023-11-21T02:12:49;98813.00;;;9.23;79.02
73633;BME280;61927;50.080;14.418;2023-11-21T02:15:18;98816.34;;;9.12;79.50
73633;BME280;61927;50.080;14.418;2023-11-21T02:17:49;98811.91;;;9.13;79.76
73633;BME280;61927;50.080;14.418;2023-11-21T02:20:22;98805.56;;;9.15;80.15
73633;BME280;61927;50.080;14.418;2023-11-21T02:22:56;98801.16;;;9.28;79.60
73633;BME280;61927;50.080;14.418;2023-11-21T02:25:25;98808.88;;;9.31;79.30
73633;BME280;61927;50.080;14.418;2023-11-21T02:27:56;98803.16;;;9.25;79.42
73633;BME280;61927;50.080;14.418;2023-11-21T02:30:22;98810.56;;;9.20;80.14
73633;BME280;61927;50.080;14.418;2023-11-21T02:32:51;98817.84;;;9.16;79.70
73633;BME280;61927;50.080;14.418;2023-11-21T02:35:18;98802.63;;;9.20;79.85
73633;BME280;61927;50.080;14.418;2023-11-21T02:37:47;98808.56;;;9.23;79.70
73633;BME280;61927;50.080;14.418;2023-11-21T02:40:12;98805.25;;;9.20;78.76
73633;BME280;61927;50.080;14.418;2023-11-21T02:42:39;98809.19;;;9.27;78.91
73633;BME280;61927;50.080;14.418;2023-11-21T02:45:07;98799.88;;;9.21;79.35
73633;BME280;61927;50.080;14.418;2023-11-21T02:47:33;98809.50;;;9.22;79.58
73633;BME280;61927;50.080;14.418;2023-11-21T02:49:59;98814.69;;;9.24;78.95
73633;BME280;61927;50.080;14.418;2023-11-21T02:52:24;98805.69;;;9.26;79.47
73633;BME280;61927;50.080;14.418;2023-11-21T02:54:50;98803.06;;;9.26;79.01
73633;BME280;61927;50.080;14.418;2023-11-21T02:57:16;98792.38;;;9.28;78.88
73633;BME280;61927;50.080;14.418;2023-11-21T02:59:42;98795.41;;;9.22;79.13
73633;BME280;61927;50.080;14.418;2023-11-21T03:02:08;98792.34;;;9.15;79.17
73633;BME280;61927;50.080;14.418;2023-11-21T03:04:34;98791.28;;;9.18;79.80
73633;BME280;61927;50.080;14.418;2023-11-21T03:07:00;98795.06;;;9.14;79.63
73633;BME280;61927;50.080;14.418;2023-11-21T03:09:26;98808.31;;;9.14;79.76
73633;BME280;61927;50.080;14.418;2023-11-21T03:11:53;98795.63;;;9.19;79.76
73633;BME280;61927;50.080;14.418;2023-11-21T03:14:19;98801.88;;;9.18;79.26
73633;BME280;61927;50.080;14.418;2023-11-21T03:16:45;98799.31;;;9.16;79.00
73633;BME280;61927;50.080;14.418;2023-11-21T03:19:11;98803.56;;;9.19;79.31
73633;BME280;61927;50.080;14.418;2023-11-21T03:21:37;98797.41;;;9.18;79.54
73633;BME280;61927;50.080;14.418;2023-11-21T03:24:03;98788.63;;;9.18;78.78
73633;BME280;61927;50.080;14.418;2023-11-21T03:26:28;98807.78;;;9.09;79.47
73633;BME280;61927;50.080;14.418;2023-11-21T03:28:55;98797.94;;;9.11;79.02
73633;BME280;61927;50.080;14.418;2023-11-21T03:31:21;98804.63;;;9.16;79.12
73633;BME280;61927;50.080;14.418;2023-11-21T03:33:46;98810.22;;;9.12;78.88
73633;BME280;61927;50.080;14.418;2023-11-21T03:36:13;98805.56;;;9.15;79.03
73633;BME280;61927;50.080;14.418;2023-11-21T03:38:40;98810.97;;;9.14;78.30
73633;BME280;61927;50.080;14.418;2023-11-21T03:41:07;98816.16;;;9.15;78.72
73633;BME280;61927;50.080;14.418;2023-11-21T03:43:36;98819.34;;;9.20;78.49
73633;BME280;61927;50.080;14.418;2023-11-21T03:46:02;98816.16;;;9.15;78.95
73633;BME280;61927;50.080;14.418;2023-11-21T03:48:27;98819.19;;;9.09;78.34
73633;BME280;61927;50.080;14.418;2023-11-21T03:50:53;98815.38;;;9.00;79.36
73633;BME280;61927;50.080;14.418;2023-11-21T03:53:18;98820.09;;;8.95;78.97
73633;BME280;61927;50.080;14.418;2023-11-21T03:55:44;98812.47;;;8.91;79.33
73633;BME280;61927;50.080;14.418;2023-11-21T03:58:09;98817.31;;;8.84;80.26
73633;BME280;61927;50.080;14.418;2023-11-21T04:00:35;98818.63;;;8.91;79.09
73633;BME280;61927;50.080;14.418;2023-11-21T04:03:00;98823.56;;;8.83;80.20
73633;BME280;61927;50.080;14.418;2023-11-21T04:05:26;98832.88;;;8.62;80.39
73633;BME280;61927;50.080;14.418;2023-11-21T04:07:52;98832.47;;;8.68;80.79
73633;BME280;61927;50.080;14.418;2023-11-21T04:10:18;98824.34;;;8.71;80.32
73633;BME280;61927;50.080;14.418;2023-11-21T04:12:43;98823.34;;;8.86;79.80
73633;BME280;61927;50.080;14.418;2023-11-21T04:15:10;98826.13;;;8.70;79.86
73633;BME280;61927;50.080;14.418;2023-11-21T04:17:36;98833.88;;;8.73;79.92
73633;BME280;61927;50.080;14.418;2023-11-21T04:20:03;98822.19;;;8.63;80.33
73633;BME280;61927;50.080;14.418;2023-11-21T04:22:33;98833.63;;;8.64;80.71
73633;BME280;61927;50.080;14.418;2023-11-21T04:24:59;98829.44;;;8.74;80.63
73633;BME280;61927;50.080;14.418;2023-11-21T04:27:24;98834.66;;;8.61;80.40
73633;BME280;61927;50.080;14.418;2023-11-21T04:29:50;98833.63;;;8.64;80.13
73633;BME280;61927;50.080;14.418;2023-11-21T04:32:15;98836.91;;;8.67;80.68
73633;BME280;61927;50.080;14.418;2023-11-21T04:34:41;98835.84;;;8.84;79.84
73633;BME280;61927;50.080;14.418;2023-11-21T04:37:07;98845.53;;;8.98;79.17
73633;BME280;61927;50.080;14.418;2023-11-21T04:39:32;98843.22;;;8.79;80.40
73633;BME280;61927;50.080;14.418;2023-11-21T04:41:58;98842.25;;;8.80;79.65
73633;BME280;61927;50.080;14.418;2023-11-21T04:44:24;98837.56;;;8.71;79.88
73633;BME280;61927;50.080;14.418;2023-11-21T04:46:49;98844.63;;;8.85;79.38
73633;BME280;61927;50.080;14.418;2023-11-21T04:49:15;98840.06;;;8.87;79.75
73633;BME280;61927;50.080;14.418;2023-11-21T04:51:40;98839.72;;;8.79;79.44
73633;BME280;61927;50.080;14.418;2023-11-21T04:54:06;98838.41;;;8.71;79.77
73633;BME280;61927;50.080;14.418;2023-11-21T04:56:31;98840.47;;;8.81;79.49
73633;BME280;61927;50.080;14.418;2023-11-21T04:58:57;98837.91;;;8.79;79.27
73633;BME280;61927;50.080;14.418;2023-11-21T05:01:22;98851.94;;;8.67;80.13
73633;BME280;61927;50.080;14.418;2023-11-21T05:03:48;98842.66;;;8.74;79.57
73633;BME280;61927;50.080;14.418;2023-11-21T05:06:14;98844.47;;;8.59;79.50
73633;BME280;61927;50.080;14.418;2023-11-21T05:08:40;98844.69;;;8.56;79.81
73633;BME280;61927;50.080;14.418;2023-11-21T05:11:06;98837.78;;;8.54;80.38
73633;BME280;61927;50.080;14.418;2023-11-21T05:13:36;98839.66;;;8.66;80.05
73633;BME280;61927;50.080;14.418;2023-11-21T05:16:03;98846.81;;;8.78;79.26
73633;BME280;61927;50.080;14.418;2023-11-21T05:18:32;98847.59;;;8.66;79.29
73633;BME280;61927;50.080;14.418;2023-11-21T05:20:58;98857.47;;;8.77;78.98
73633;BME280;61927;50.080;14.418;2023-11-21T05:23:23;98863.81;;;8.74;78.96
73633;BME280;61927;50.080;14.418;2023-11-21T05:25:49;98863.63;;;8.77;78.40
73633;BME280;61927;50.080;14.418;2023-11-21T05:28:15;98856.72;;;8.74;78.38
73633;BME280;61927;50.080;14.418;2023-11-21T05:30:40;98851.47;;;8.60;79.00
73633;BME280;61927;50.080;14.418;2023-11-21T05:33:06;98865.06;;;8.68;79.23
73633;BME280;61927;50.080;14.418;2023-11-21T05:35:31;98862.31;;;8.70;79.33
73633;BME280;61927;50.080;14.418;2023-11-21T05:37:57;98863.91;;;8.72;79.05
73633;BME280;61927;50.080;14.418;2023-11-21T05:40:22;98871.28;;;8.82;78.52
73633;BME280;61927;50.080;14.418;2023-11-21T05:42:48;98873.22;;;8.92;77.96
73633;BME280;61927;50.080;14.418;2023-11-21T05:45:14;98872.16;;;8.68;77.96
73633;BME280;61927;50.080;14.418;2023-11-21T05:47:42;98879.69;;;8.74;78.12
73633;BME280;61927;50.080;14.418;2023-11-21T05:50:10;98872.69;;;8.73;78.05
73633;BME280;61927;50.080;14.418;2023-11-21T05:52:39;98874.50;;;8.72;77.37
73633;BME280;61927;50.080;14.418;2023-11-21T05:55:08;98871.06;;;8.85;77.91
73633;BME280;61927;50.080;14.418;2023-11-21T05:57:38;98872.34;;;8.65;78.11
73633;BME280;61927;50.080;14.418;2023-11-21T06:00:09;98866.38;;;8.76;77.99
73633;BME280;61927;50.080;14.418;2023-11-21T06:02:38;98877.03;;;8.74;77.92
73633;BME280;61927;50.080;14.418;2023-11-21T06:05:04;98874.22;;;8.77;77.78
73633;BME280;61927;50.080;14.418;2023-11-21T06:07:30;98879.97;;;8.84;77.58
73633;BME280;61927;50.080;14.418;2023-11-21T06:09:55;98877.50;;;8.81;77.61
73633;BME280;61927;50.080;14.418;2023-11-21T06:12:21;98883.34;;;8.86;77.59
73633;BME280;61927;50.080;14.418;2023-11-21T06:14:46;98878.81;;;8.88;78.11
73633;BME280;61927;50.080;14.418;2023-11-21T06:17:13;98892.25;;;8.85;77.62
73633;BME280;61927;50.080;14.418;2023-11-21T06:19:39;98893.84;;;8.87;77.75
73633;BME280;61927;50.080;14.418;2023-11-21T06:22:05;98894.03;;;8.84;77.37
73633;BME280;61927;50.080;14.418;2023-11-21T06:24:31;98892.13;;;8.86;77.47
73633;BME280;61927;50.080;14.418;2023-11-21T06:26:57;98899.63;;;8.80;77.83
73633;BME280;61927;50.080;14.418;2023-11-21T06:29:22;98905.28;;;8.73;77.94
73633;BME280;61927;50.080;14.418;2023-11-21T06:31:49;98903.09;;;8.94;77.12
73633;BME280;61927;50.080;14.418;2023-11-21T06:34:14;98907.13;;;9.00;76.56
73633;BME280;61927;50.080;14.418;2023-11-21T06:36:40;98902.78;;;8.99;77.27
73633;BME280;61927;50.080;14.418;2023-11-21T06:39:05;98907.03;;;9.01;76.17
73633;BME280;61927;50.080;14.418;2023-11-21T06:41:33;98910.88;;;9.10;76.20
73633;BME280;61927;50.080;14.418;2023-11-21T06:43:59;98912.28;;;9.16;76.06
73633;BME280;61927;50.080;14.418;2023-11-21T06:46:25;98926.38;;;9.16;75.83
73633;BME280;61927;50.080;14.418;2023-11-21T06:48:50;98928.72;;;9.21;75.90
73633;BME280;61927;50.080;14.418;2023-11-21T06:51:16;98930.91;;;9.14;75.65
73633;BME280;61927;50.080;14.418;2023-11-21T06:53:42;98931.59;;;9.03;75.69
73633;BME280;61927;50.080;14.418;2023-11-21T06:56:18;98925.75;;;8.98;76.09
73633;BME280;61927;50.080;14.418;2023-11-21T06:58:46;98922.06;;;9.01;75.88
73633;BME280;61927;50.080;14.418;2023-11-21T07:01:13;98925.81;;;9.11;75.95
73633;BME280;61927;50.080;14.418;2023-11-21T07:03:39;98923.28;;;9.10;75.23
73633;BME280;61927;50.080;14.418;2023-11-21T07:06:05;98924.41;;;9.05;75.34
73633;BME280;61927;50.080;14.418;2023-11-21T07:08:31;98936.47;;;9.24;74.68
73633;BME280;61927;50.080;14.418;2023-11-21T07:10:56;98933.53;;;9.28;74.80
73633;BME280;61927;50.080;14.418;2023-11-21T07:13:22;98932.19;;;8.94;75.30
73633;BME280;61927;50.080;14.418;2023-11-21T07:15:48;98934.41;;;9.15;75.00
73633;BME280;61927;50.080;14.418;2023-11-21T07:18:14;98929.97;;;9.15;75.37
73633;BME280;61927;50.080;14.418;2023-11-21T07:20:40;98934.59;;;9.12;74.96
73633;BME280;61927;50.080;14.418;2023-11-21T07:23:05;98937.22;;;9.26;75.22
73633;BME280;61927;50.080;14.418;2023-11-21T07:25:32;98935.47;;;9.39;75.33
73633;BME280;61927;50.080;14.418;2023-11-21T07:27:59;98933.28;;;9.46;74.79
73633;BME280;61927;50.080;14.418;2023-11-21T07:30:25;98937.41;;;9.50;74.90
73633;BME280;61927;50.080;14.418;2023-11-21T07:32:51;98937.53;;;9.48;75.12
73633;BME280;61927;50.080;14.418;2023-11-21T07:35:17;98943.38;;;9.53;74.73
73633;BME280;61927;50.080;14.418;2023-11-21T07:37:44;98954.22;;;9.63;74.69
73633;BME280;61927;50.080;14.418;2023-11-21T07:40:13;98952.09;;;9.68;74.50
73633;BME280;61927;50.080;14.418;2023-11-21T07:42:39;98948.16;;;9.61;74.42
73633;BME280;61927;50.080;14.418;2023-11-21T07:45:05;98942.16;;;9.71;73.39
73633;BME280;61927;50.080;14.418;2023-11-21T07:47:32;98944.59;;;9.75;73.34
73633;BME280;61927;50.080;14.418;2023-11-21T07:50:01;98941.53;;;9.81;72.92
73633;BME280;61927;50.080;14.418;2023-11-21T07:52:28;98949.91;;;9.75;72.98
73633;BME280;61927;50.080;14.418;2023-11-21T07:54:54;98946.81;;;9.68;73.32
73633;BME280;61927;50.080;14.418;2023-11-21T07:57:19;98955.50;;;9.70;73.08
73633;BME280;61927;50.080;14.418;2023-11-21T07:59:45;98953.69;;;9.70;72.01
73633;BME280;61927;50.080;14.418;2023-11-21T08:02:10;98957.75;;;9.76;72.59
73633;BME280;61927;50.080;14.418;2023-11-21T08:04:38;98948.47;;;9.56;72.45
73633;BME280;61927;50.080;14.418;2023-11-21T08:07:03;98945.97;;;9.67;72.70
73633;BME280;61927;50.080;14.418;2023-11-21T08:09:29;98945.75;;;9.70;72.19
73633;BME280;61927;50.080;14.418;2023-11-21T08:11:55;98946.22;;;9.90;71.87
73633;BME280;61927;50.080;14.418;2023-11-21T08:14:22;98951.94;;;9.84;71.53
73633;BME280;61927;50.080;14.418;2023-11-21T08:16:50;98957.97;;;9.86;71.46
73633;BME280;61927;50.080;14.418;2023-11-21T08:19:16;98955.56;;;9.95;71.45
73633;BME280;61927;50.080;14.418;2023-11-21T08:21:43;98955.94;;;9.77;70.58
73633;BME280;61927;50.080;14.418;2023-11-21T08:24:10;98959.13;;;9.82;71.34
73633;BME280;61927;50.080;14.418;2023-11-21T08:26:39;98960.22;;;9.52;71.05
73633;BME280;61927;50.080;14.418;2023-11-21T08:29:05;98972.16;;;9.45;72.58
73633;BME280;61927;50.080;14.418;2023-11-21T08:31:32;98964.25;;;9.58;71.88
73633;BME280;61927;50.080;14.418;2023-11-21T08:33:59;98979.59;;;9.53;71.71
73633;BME280;61927;50.080;14.418;2023-11-21T08:36:28;98976.91;;;9.67;71.34
73633;BME280;61927;50.080;14.418;2023-11-21T08:38:54;98973.66;;;9.49;72.05
73633;BME280;61927;50.080;14.418;2023-11-21T08:41:20;98970.53;;;9.69;71.31
73633;BME280;61927;50.080;14.418;2023-11-21T08:43:52;98972.59;;;9.52;71.68
73633;BME280;61927;50.080;14.418;2023-11-21T08:46:19;98979.78;;;9.50;72.13
73633;BME280;61927;50.080;14.418;2023-11-21T08:48:44;98979.38;;;9.29;72.32
73633;BME280;61927;50.080;14.418;2023-11-21T08:51:10;98979.63;;;9.38;72.89
73633;BME280;61927;50.080;14.418;2023-11-21T08:53:39;98981.53;;;9.36;72.86
73633;BME280;61927;50.080;14.418;2023-11-21T08:56:05;98990.63;;;9.32;72.74
73633;BME280;61927;50.080;14.418;2023-11-21T08:58:31;98993.34;;;9.45;72.37
73633;BME280;61927;50.080;14.418;2023-11-21T09:00:58;98993.47;;;9.29;73.45
73633;BME280;61927;50.080;14.418;2023-11-21T09:03:24;98998.88;;;9.28;73.45
73633;BME280;61927;50.080;14.418;2023-11-21T09:05:50;98997.06;;;9.28;72.93
73633;BME280;61927;50.080;14.418;2023-11-21T09:08:16;98995.81;;;9.34;73.04
73633;BME280;61927;50.080;14.418;2023-11-21T09:10:42;99000.28;;;9.33;73.09
73633;BME280;61927;50.080;14.418;2023-11-21T09:13:08;98997.53;;;9.35;73.02
73633;BME280;61927;50.080;14.418;2023-11-21T09:15:36;99012.13;;;9.55;72.24
73633;BME280;61927;50.080;14.418;2023-11-21T09:18:03;99007.44;;;9.46;72.09
73633;BME280;61927;50.080;14.418;2023-11-21T09:20:28;99014.38;;;9.61;71.43
73633;BME280;61927;50.080;14.418;2023-11-21T09:22:54;99016.38;;;9.57;71.46
73633;BME280;61927;50.080;14.418;2023-11-21T09:25:20;99009.34;;;9.70;70.92
73633;BME280;61927;50.080;14.418;2023-11-21T09:27:46;99021.94;;;9.67;71.19
73633;BME280;61927;50.080;14.418;2023-11-21T09:30:12;99017.97;;;9.60;72.12
73633;BME280;61927;50.080;14.418;2023-11-21T09:32:39;99017.94;;;9.74;72.05
73633;BME280;61927;50.080;14.418;2023-11-21T09:35:06;99022.09;;;9.78;71.83
73633;BME280;61927;50.080;14.418;2023-11-21T09:37:34;99023.28;;;9.60;72.30
73633;BME280;61927;50.080;14.418;2023-11-21T09:40:04;99024.44;;;9.56;71.92
73633;BME280;61927;50.080;14.418;2023-11-21T09:42:39;99022.28;;;9.48;71.80
73633;BME280;61927;50.080;14.418;2023-11-21T09:45:24;99029.22;;;9.63;71.33
73633;BME280;61927;50.080;14.418;2023-11-21T09:47:52;99035.78;;;9.85;69.96
73633;BME280;61927;50.080;14.418;2023-11-21T09:50:20;99025.69;;;9.77;70.17
73633;BME280;61927;50.080;14.418;2023-11-21T09:52:55;99033.84;;;9.74;70.39
73633;BME280;61927;50.080;14.418;2023-11-21T09:55:25;99030.78;;;9.80;70.16
73633;BME280;61927;50.080;14.418;2023-11-21T09:57:53;99036.28;;;9.77;70.55
73633;BME280;61927;50.080;14.418;2023-11-21T10:00:21;99037.22;;;9.76;70.16
73633;BME280;61927;50.080;14.418;2023-11-21T10:02:52;99032.22;;;9.71;70.25
73633;BME280;61927;50.080;14.418;2023-11-21T10:05:18;99033.69;;;9.63;69.88
73633;BME280;61927;50.080;14.418;2023-11-21T10:07:50;99029.47;;;9.73;69.70
73633;BME280;61927;50.080;14.418;2023-11-21T10:10:18;99031.59;;;9.68;69.60
73633;BME280;61927;50.080;14.418;2023-11-21T10:12:55;99030.69;;;9.82;69.00
73633;BME280;61927;50.080;14.418;2023-11-21T10:15:22;99032.31;;;9.97;68.62
73633;BME280;61927;50.080;14.418;2023-11-21T10:17:52;99033.47;;;9.93;68.44
73633;BME280;61927;50.080;14.418;2023-11-21T10:20:19;99033.41;;;10.07;67.69
73633;BME280;61927;50.080;14.418;2023-11-21T10:22:46;99029.28;;;10.03;66.86
73633;BME280;61927;50.080;14.418;2023-11-21T10:25:12;99024.72;;;10.05;67.20
73633;BME280;61927;50.080;14.418;2023-11-21T10:27:41;99038.38;;;10.26;66.94
73633;BME280;61927;50.080;14.418;2023-11-21T10:30:10;99032.03;;;10.01;65.75
73633;BME280;61927;50.080;14.418;2023-11-21T10:32:38;99028.94;;;9.95;66.05
73633;BME280;61927;50.080;14.418;2023-11-21T10:35:07;99026.91;;;10.25;65.98
73633;BME280;61927;50.080;14.418;2023-11-21T10:37:36;99025.97;;;10.26;65.25
73633;BME280;61927;50.080;14.418;2023-11-21T10:40:09;99028.56;;;10.14;66.36
73633;BME280;61927;50.080;14.418;2023-11-21T10:42:43;99023.44;;;9.98;65.84
73633;BME280;61927;50.080;14.418;2023-11-21T10:45:09;99026.00;;;10.12;65.32
73633;BME280;61927;50.080;14.418;2023-11-21T10:47:42;99022.16;;;10.30;65.15
73633;BME280;61927;50.080;14.418;2023-11-21T10:50:09;99033.41;;;10.47;64.96
73633;BME280;61927;50.080;14.418;2023-11-21T10:52:40;99032.75;;;10.30;65.80
73633;BME280;61927;50.080;14.418;2023-11-21T10:55:20;99025.88;;;10.41;65.94
73633;BME280;61927;50.080;14.418;2023-11-21T10:57:49;99030.53;;;10.24;67.54
73633;BME280;61927;50.080;14.418;2023-11-21T11:00:17;99029.31;;;10.16;67.27
73633;BME280;61927;50.080;14.418;2023-11-21T11:02:52;99024.56;;;10.21;67.76
73633;BME280;61927;50.080;14.418;2023-11-21T11:05:22;99028.94;;;9.95;67.61
73633;BME280;61927;50.080;14.418;2023-11-21T11:07:52;99018.97;;;9.98;67.44
73633;BME280;61927;50.080;14.418;2023-11-21T11:10:26;99021.06;;;10.20;67.65
73633;BME280;61927;50.080;14.418;2023-11-21T11:12:59;99020.28;;;10.18;67.72
73633;BME280;61927;50.080;14.418;2023-11-21T11:15:31;99011.00;;;10.25;66.99
73633;BME280;61927;50.080;14.418;2023-11-21T11:17:58;99009.41;;;10.23;67.47
73633;BME280;61927;50.080;14.418;2023-11-21T11:20:29;99012.94;;;10.36;67.02
73633;BME280;61927;50.080;14.418;2023-11-21T11:23:11;99007.75;;;10.47;66.68
73633;BME280;61927;50.080;14.418;2023-11-21T11:25:59;99007.53;;;10.63;65.96
73633;BME280;61927;50.080;14.418;2023-11-21T11:28:53;99006.91;;;10.72;65.48
73633;BME280;61927;50.080;14.418;2023-11-21T11:31:45;99004.78;;;10.77;65.47
73633;BME280;61927;50.080;14.418;2023-11-21T11:34:22;99009.66;;;10.83;64.09
73633;BME280;61927;50.080;14.418;2023-11-21T11:37:08;98998.84;;;10.86;62.68
73633;BME280;61927;50.080;14.418;2023-11-21T11:39:39;99004.88;;;10.63;62.78
73633;BME280;61927;50.080;14.418;2023-11-21T11:42:08;99012.09;;;10.74;62.95
73633;BME280;61927;50.080;14.418;2023-11-21T11:47:32;99011.03;;;10.51;63.49
73633;BME280;61927;50.080;14.418;2023-11-21T11:50:08;99015.59;;;10.36;62.06
73633;BME280;61927;50.080;14.418;2023-11-21T11:52:52;99025.69;;;10.17;62.23
73633;BME280;61927;50.080;14.418;2023-11-21T11:55:23;99020.88;;;10.23;62.65
73633;BME280;61927;50.080;14.418;2023-11-21T11:57:53;99013.56;;;10.40;61.86
73633;BME280;61927;50.080;14.418;2023-11-21T12:00:33;99016.53;;;10.35;60.95
73633;BME280;61927;50.080;14.418;2023-11-21T12:03:05;99015.28;;;10.41;60.21
73633;BME280;61927;50.080;14.418;2023-11-21T12:05:33;99024.91;;;10.29;59.57
73633;BME280;61927;50.080;14.418;2023-11-21T12:08:07;99023.91;;;10.17;60.29
73633;BME280;61927;50.080;14.418;2023-11-21T12:10:35;99022.19;;;10.16;59.59
73633;BME280;61927;50.080;14.418;2023-11-21T12:13:09;99018.56;;;10.04;59.59
73633;BME280;61927;50.080;14.418;2023-11-21T12:15:35;99025.31;;;10.23;60.10
73633;BME280;61927;50.080;14.418;2023-11-21T12:18:02;99025.78;;;10.42;59.88
73633;BME280;61927;50.080;14.418;2023-11-21T12:20:30;99007.75;;;10.47;60.00
73633;BME280;61927;50.080;14.418;2023-11-21T12:22:58;99018.25;;;10.36;60.04
73633;BME280;61927;50.080;14.418;2023-11-21T12:25:26;99029.66;;;10.24;61.08
73633;BME280;61927;50.080;14.418;2023-11-21T12:27:56;99029.03;;;10.20;61.62
73633;BME280;61927;50.080;14.418;2023-11-21T12:30:25;99026.91;;;10.25;61.93
73633;BME280;61927;50.080;14.418;2023-11-21T12:32:54;99034.66;;;10.01;63.77
73633;BME280;61927;50.080;14.418;2023-11-21T12:35:25;99033.53;;;9.79;65.35
73633;BME280;61927;50.080;14.418;2023-11-21T12:37:53;99038.78;;;9.93;65.39
73633;BME280;61927;50.080;14.418;2023-11-21T12:40:20;99042.06;;;9.96;65.14
73633;BME280;61927;50.080;14.418;2023-11-21T12:42:54;99034.50;;;10.17;64.38
73633;BME280;61927;50.080;14.418;2023-11-21T12:45:23;99034.72;;;10.14;64.31
73633;BME280;61927;50.080;14.418;2023-11-21T12:47:54;99033.47;;;9.93;65.20
73633;BME280;61927;50.080;14.418;2023-11-21T12:50:25;99034.69;;;9.75;66.90
73633;BME280;61927;50.080;14.418;2023-11-21T12:52:58;99036.56;;;9.73;66.71
73633;BME280;61927;50.080;14.418;2023-11-21T12:55:24;99039.88;;;9.76;67.10
73633;BME280;61927;50.080;14.418;2023-11-21T12:57:52;99035.50;;;9.48;68.20
73633;BME280;61927;50.080;14.418;2023-11-21T13:00:31;99043.94;;;9.41;68.97
73633;BME280;61927;50.080;14.418;2023-11-21T13:02:58;99042.34;;;9.38;70.00